This is the latest recevied weather packets stored in our database for station/object WD7CGF. If no packets are shown the sender has not sent any weather packets the latest 10 day(s).
| Time | Temp. | Humidity | Pressure | Rain* | Wind** | Luminosity | Snow |
|---|---|---|---|---|---|---|---|
| 1777740488 | 20.56° C | 53% | 1015 hPa | 0 mm | - | - | - |
| 1777739896 | 20.56° C | 54% | 1015 hPa | 0 mm | - | - | - |
| 1777739285 | 20° C | 55% | 1015.1 hPa | 0 mm | - | - | - |
| 1777738695 | 19.44° C | 58% | 1015.1 hPa | 0 mm | - | - | - |
| 1777738103 | 18.89° C | 60% | 1014.8 hPa | 0 mm | - | - | - |
| 1777737490 | 18.33° C | 58% | 1014.8 hPa | 0 mm | - | - | - |
| 1777736899 | 18.33° C | 61% | 1014.8 hPa | 0 mm | - | - | - |
| 1777736289 | 17.78° C | 63% | 1014.8 hPa | 0 mm | - | - | - |
| 1777735685 | 17.22° C | 66% | 1015 hPa | 0 mm | - | - | - |
| 1777735097 | 16.11° C | 70% | 1015 hPa | 0 mm | - | - | - |
| 1777734484 | 15.56° C | 71% | 1014.8 hPa | 0 mm | - | - | - |
| 1777733890 | 15° C | 74% | 1014.8 hPa | 0 mm | - | - | - |
| 1777733298 | 14.44° C | 74% | 1014.8 hPa | 0 mm | - | - | - |
| 1777732684 | 14.44° C | 74% | 1014.8 hPa | 0 mm | - | - | - |
| 1777732088 | 13.33° C | 78% | 1015 hPa | 0 mm | - | - | - |
| 1777731492 | 12.22° C | 82% | 1015 hPa | 0 mm | - | - | - |
| 1777730902 | 11.11° C | 84% | 1015 hPa | 0 mm | - | - | - |
| 1777730296 | 11.11° C | 84% | 1015.1 hPa | 0 mm | - | - | - |
| 1777729686 | 10.56° C | 84% | 1015.1 hPa | 0 mm | - | - | - |
| 1777729090 | 10.56° C | 84% | 1015 hPa | 0 mm | - | - | - |
| 1777727886 | 10.56° C | 83% | 1014.9 hPa | 0 mm | - | - | - |
| 1777727291 | 10.56° C | 83% | 1014.5 hPa | 0 mm | - | - | - |
| 1777726696 | 10.56° C | 83% | 1014.5 hPa | 0 mm | - | - | - |
| 1777726082 | 10.56° C | 82% | 1014.5 hPa | 0 mm | - | - | - |
| 1777725493 | 10.56° C | 82% | 1014.5 hPa | 0 mm | - | - | - |
* Rain since midnight (hover to see other rain measurements)
** Current wind speed in m/s (hover to see current wind gust speed)